Strona główna
METAR-TAF:

METAR-TAF

Lotnisko :

Monticello, Kentucky, Stany Zjednoczone

Szerokość geograficzna: 36-51-19N, Długość geograficzna: 084-51-22W, wysokość: 294 m

Aktualna obserwacja pogody

Raport powstał 42 minut temu, godzina 10:56 UTC
Wiatr 8 kt od zachód
Temperatura 20°C
Wilgotność 100%
Ciśnienie 1018 hPa
Widzialność: 14.5 km
bezchmurnie

METAR: KEKQ 211056Z AUTO 27008KT 9SM CLR 20/20 A3006 RMK AO2 SLP187 T02000200 PNO $

czas: 07:38 (11:38 UTC)


TAF: brakujący

Obserwacja i prognoza pogody dla ponad 4000 lotnisk (raport METAR i TAF).

Dostępne stacje oznaczono żółtymi i czerwonymi punktami na mapie.

Najedź kursorem aby zobaczyć nazwę stacji.

Kliknij aby zobaczyć obserwacje i prognozy pogody.

Aby zmienić mapę: kliknij na zielony przycisk z czarnym krzyżykiem, aby powiększyć; na zielony przycisk z myślnikiem, aby pomniejszyć; na zielone strzałki, aby przejść do map sąsiednich.


METAR-TAF: